Impacts TAF Board INFO
FOR SITUATIONAL AWARENESS. NOT TO BE USED FOR FLIGHT PLANNING PURPOSES.
IDs:

KMDW - Chicago/Midway Intl, IL, US

Issued at 1511 UTC 26 Apr 2018
Updated at 1702 UTC 26 Apr 2018
Potential Impact None Slight Moderate High
Time1653Z 26/18Z 26/19Z 26/20Z 26/21Z 26/22Z 26/23Z 27/00Z 27/01Z 27/02Z 27/03Z 27/04Z 27/05Z 27/06Z>>
Type OBS PRVL PRVL PRVL PRVL PRVL PRVL PRVL PRVL PRVL PRVL PRVL PRVL PRVL
VIS 10 >6 >6 >6 >6 >6 >6 >6 >6 >6 >6 >6 >6 >6
CIG 250 -- -- -- 250 250 250 250 250 250 250 250 250 250
Cover BKN SCT SCT SCT BKN BKN BKN BKN BKN BKN BKN BKN BKN BKN
FltCat VFR VFR VFR VFR VFR VFR VFR VFR VFR VFR VFR VFR VFR VFR
WX -- -- -- -- -- -- -- -- -- -- -- -- -- --
WDir 110 150 150 150 110 110 110 110 110 160 160 160 160 160
WSpd 4 5 5 5 7 7 7 7 7 7 7 7 7 7
WGst -- -- -- -- -- -- -- -- -- -- -- -- -- --

Raw TAF
KMDW 261511Z 2615/2718 15005KT P6SM SCT250
  FM262100 11007KT P6SM BKN250
  FM270200 16007KT P6SM BKN250
  FM270800 35012G19KT P6SM SCT020 BKN040 BKN070
  FM271200 34010KT P6SM SCT025


Raw METAR
KMDW 261653Z 11004KT 10SM BKN250 14/M03 A2996 RMK AO2 SLP147 T01441028
KMDW 261553Z 00000KT 10SM BKN250 13/M03 A2997 RMK AO2 SLP151 T01281033
KMDW 261453Z 00000KT 10SM SCT250 12/M02 A2997 RMK AO2 SLP150 T01171017 50001

METAR Board
Radar Display
Forecast Discussion

FOR SITUATIONAL AWARENESS. NOT TO BE USED FOR FLIGHT PLANNING PURPOSES.